createdAt,value
2018-11-22T00:10:00.640Z,97.30
2018-11-22T00:20:19.551Z,97.44
2018-11-22T00:30:38.247Z,97.45
2018-11-22T00:40:57.141Z,97.56
2018-11-22T00:51:15.865Z,97.69
2018-11-22T01:01:34.633Z,97.67
2018-11-22T01:11:53.292Z,97.62
2018-11-22T01:22:11.962Z,97.62
2018-11-22T01:32:30.786Z,97.74
2018-11-22T01:42:49.508Z,97.75
2018-11-22T01:53:08.198Z,97.81
2018-11-22T02:03:27.138Z,97.87
2018-11-22T02:13:45.872Z,97.99
2018-11-22T02:24:05.584Z,98.07
2018-11-22T02:34:24.391Z,98.16
2018-11-22T02:44:44.039Z,98.23
2018-11-22T02:55:03.519Z,98.28
2018-11-22T03:05:22.157Z,98.34
2018-11-22T03:15:40.997Z,98.40
2018-11-22T03:25:59.765Z,98.46
2018-11-22T03:36:18.532Z,98.49
2018-11-22T03:46:37.927Z,98.46
2018-11-22T03:56:56.744Z,98.50
2018-11-22T04:07:15.666Z,98.48
2018-11-22T04:17:34.272Z,98.54
2018-11-22T04:27:53.070Z,98.52
2018-11-22T04:38:12.071Z,98.58
2018-11-22T04:48:30.608Z,98.56
2018-11-22T04:58:49.703Z,98.54
2018-11-22T05:09:09.604Z,98.56
2018-11-22T05:19:28.324Z,98.54
2018-11-22T05:29:47.142Z,98.53
2018-11-22T05:40:08.682Z,98.58
2018-11-22T05:50:29.551Z,98.61
2018-11-22T06:00:48.261Z,98.59
2018-11-22T06:11:07.047Z,98.55
2018-11-22T06:21:28.425Z,98.45
2018-11-22T06:31:46.800Z,98.45
2018-11-22T06:42:05.388Z,98.41
2018-11-22T06:52:24.775Z,98.33
2018-11-22T07:02:43.730Z,98.33
2018-11-22T07:13:02.605Z,98.27
2018-11-22T07:23:21.258Z,98.15
2018-11-22T07:33:40.120Z,98.06
2018-11-22T07:43:58.687Z,97.82
2018-11-22T07:54:17.456Z,97.53
2018-11-22T08:04:36.092Z,97.24
2018-11-22T08:14:54.958Z,96.46
2018-11-22T08:25:15.168Z,95.37
2018-11-22T08:35:33.935Z,93.65
2018-11-22T08:45:52.618Z,91.95
2018-11-22T08:56:11.355Z,91.23
2018-11-22T09:06:30.267Z,89.93
2018-11-22T09:16:50.690Z,88.96
2018-11-22T09:27:15.401Z,87.84
2018-11-22T09:37:37.927Z,87.31
2018-11-22T09:47:58.673Z,86.25
2018-11-22T09:58:18.706Z,86.36
2018-11-22T10:08:44.088Z,85.68
2018-11-22T10:19:04.202Z,86.37
2018-11-22T10:29:24.551Z,86.75
2018-11-22T10:39:43.919Z,86.12
2018-11-22T10:50:04.838Z,86.89
2018-11-22T11:00:43.278Z,85.46
2018-11-22T11:11:03.845Z,84.92
2018-11-22T11:21:23.533Z,86.40
2018-11-22T11:31:43.450Z,84.80
2018-11-22T11:42:02.787Z,86.28
2018-11-22T11:52:23.204Z,86.40
2018-11-22T12:02:44.153Z,87.44
2018-11-22T12:13:05.009Z,88.07
2018-11-22T12:23:25.948Z,88.96
2018-11-22T12:34:05.442Z,89.12
2018-11-22T12:44:26.215Z,89.53
2018-11-22T12:54:46.453Z,90.39
2018-11-22T13:05:07.751Z,90.99
2018-11-22T13:15:28.042Z,91.88
2018-11-22T13:25:48.093Z,91.98
2018-11-22T13:36:08.478Z,91.68
2018-11-22T13:46:28.013Z,92.13
2018-11-22T13:56:48.006Z,92.44
2018-11-22T14:07:07.598Z,92.59
2018-11-22T14:17:27.075Z,93.15
2018-11-22T14:27:47.822Z,93.83
2018-11-22T14:38:06.879Z,93.86
2018-11-22T14:48:26.071Z,94.21
2018-11-22T14:58:45.859Z,94.15
2018-11-22T15:09:07.386Z,94.35
2018-11-22T15:19:27.141Z,95.28
2018-11-22T15:29:46.628Z,95.51
2018-11-22T15:40:08.354Z,95.57
2018-11-22T15:50:28.395Z,95.75
2018-11-22T16:00:48.457Z,95.73
2018-11-22T16:11:10.899Z,96.00
2018-11-22T16:21:28.294Z,96.16
2018-11-22T16:31:48.762Z,96.44
2018-11-22T16:42:09.216Z,96.51
2018-11-22T16:52:30.791Z,96.74
2018-11-22T17:02:52.889Z,96.95
2018-11-22T17:13:15.427Z,97.04
2018-11-22T17:23:37.823Z,96.95
2018-11-22T17:33:59.561Z,96.90
2018-11-22T17:44:21.709Z,96.91
2018-11-22T17:54:43.850Z,96.91
2018-11-22T18:05:05.696Z,96.83
2018-11-22T18:15:29.980Z,96.71
2018-11-22T18:25:53.590Z,96.64
2018-11-22T18:36:17.141Z,96.84
2018-11-22T18:46:39.827Z,97.04
2018-11-22T18:57:03.196Z,97.40
2018-11-22T19:07:23.494Z,97.54
2018-11-22T19:17:42.481Z,97.73
2018-11-22T19:28:02.206Z,97.90
2018-11-22T19:38:21.102Z,98.07
2018-11-22T19:48:39.596Z,98.17
2018-11-22T19:58:58.514Z,98.20
2018-11-22T20:09:25.033Z,98.18
2018-11-22T20:19:43.983Z,98.22
2018-11-22T20:30:03.452Z,98.26
2018-11-22T20:40:23.815Z,98.22
2018-11-22T20:50:42.487Z,97.98
2018-11-22T21:01:01.232Z,97.94
2018-11-22T21:11:19.966Z,97.50
2018-11-22T21:21:38.513Z,97.49
2018-11-22T21:31:57.499Z,97.49
2018-11-22T21:42:36.568Z,97.28
2018-11-22T22:04:12.409Z,96.66
2018-11-22T22:25:26.596Z,96.06
2018-11-22T23:08:54.409Z,95.28
2018-11-22T23:19:03.006Z,95.19
2018-11-22T23:29:21.615Z,95.56
2018-11-22T23:39:40.260Z,95.62
2018-11-22T23:49:59.047Z,95.56
